sensor_id;sensor_type;location;lat;lon;timestamp;temperature;humidity
67868;SHT31;54672;46.096;14.470;2024-02-21T00:00:52;4.65;99.13
67868;SHT31;54672;46.096;14.470;2024-02-21T00:03:18;4.59;99.36
67868;SHT31;54672;46.096;14.470;2024-02-21T00:05:43;4.51;99.97
67868;SHT31;54672;46.096;14.470;2024-02-21T00:08:09;4.35;99.99
67868;SHT31;54672;46.096;14.470;2024-02-21T00:10:34;4.27;99.99
67868;SHT31;54672;46.096;14.470;2024-02-21T00:13:00;4.18;99.99
67868;SHT31;54672;46.096;14.470;2024-02-21T00:15:26;4.11;99.99
67868;SHT31;54672;46.096;14.470;2024-02-21T00:17:51;4.10;99.99
67868;SHT31;54672;46.096;14.470;2024-02-21T00:20:17;4.04;99.99
67868;SHT31;54672;46.096;14.470;2024-02-21T00:22:43;4.01;99.99
67868;SHT31;54672;46.096;14.470;2024-02-21T00:25:09;3.95;99.99
67868;SHT31;54672;46.096;14.470;2024-02-21T00:27:35;3.87;99.99
67868;SHT31;54672;46.096;14.470;2024-02-21T00:30:00;3.82;99.99
67868;SHT31;54672;46.096;14.470;2024-02-21T00:32:26;3.79;99.99
67868;SHT31;54672;46.096;14.470;2024-02-21T00:34:51;3.74;99.99
67868;SHT31;54672;46.096;14.470;2024-02-21T00:37:17;3.66;99.99
67868;SHT31;54672;46.096;14.470;2024-02-21T00:39:42;3.64;99.99
67868;SHT31;54672;46.096;14.470;2024-02-21T00:42:08;3.69;99.99
67868;SHT31;54672;46.096;14.470;2024-02-21T00:44:33;3.67;99.99
67868;SHT31;54672;46.096;14.470;2024-02-21T00:46:59;3.76;99.99
67868;SHT31;54672;46.096;14.470;2024-02-21T00:49:24;3.83;99.99
67868;SHT31;54672;46.096;14.470;2024-02-21T00:51:49;3.86;99.99
67868;SHT31;54672;46.096;14.470;2024-02-21T00:54:15;3.82;99.99
67868;SHT31;54672;46.096;14.470;2024-02-21T00:56:41;3.73;99.99
67868;SHT31;54672;46.096;14.470;2024-02-21T00:59:07;3.49;99.99
67868;SHT31;54672;46.096;14.470;2024-02-21T01:01:32;3.36;99.99
67868;SHT31;54672;46.096;14.470;2024-02-21T01:03:57;3.33;99.99
67868;SHT31;54672;46.096;14.470;2024-02-21T01:06:23;3.31;99.99
67868;SHT31;54672;46.096;14.470;2024-02-21T01:08:49;3.39;99.99
67868;SHT31;54672;46.096;14.470;2024-02-21T01:11:15;3.58;99.99
67868;SHT31;54672;46.096;14.470;2024-02-21T01:13:40;3.60;99.99
67868;SHT31;54672;46.096;14.470;2024-02-21T01:16:06;3.53;99.99
67868;SHT31;54672;46.096;14.470;2024-02-21T01:18:38;3.45;99.99
67868;SHT31;54672;46.096;14.470;2024-02-21T01:21:04;3.38;99.99
67868;SHT31;54672;46.096;14.470;2024-02-21T01:23:33;3.28;99.99
67868;SHT31;54672;46.096;14.470;2024-02-21T01:25:59;3.26;99.99
67868;SHT31;54672;46.096;14.470;2024-02-21T01:28:24;3.21;99.99
67868;SHT31;54672;46.096;14.470;2024-02-21T01:30:50;3.19;99.99
67868;SHT31;54672;46.096;14.470;2024-02-21T01:33:15;3.12;99.99
67868;SHT31;54672;46.096;14.470;2024-02-21T01:35:41;3.04;99.99
67868;SHT31;54672;46.096;14.470;2024-02-21T01:38:06;3.00;99.99
67868;SHT31;54672;46.096;14.470;2024-02-21T01:40:32;2.97;99.99
67868;SHT31;54672;46.096;14.470;2024-02-21T01:42:57;2.91;99.99
67868;SHT31;54672;46.096;14.470;2024-02-21T01:45:23;2.87;99.99
67868;SHT31;54672;46.096;14.470;2024-02-21T01:47:49;2.95;99.99
67868;SHT31;54672;46.096;14.470;2024-02-21T01:50:15;2.97;99.99
67868;SHT31;54672;46.096;14.470;2024-02-21T01:52:43;2.85;99.99
67868;SHT31;54672;46.096;14.470;2024-02-21T01:55:10;2.70;99.99
67868;SHT31;54672;46.096;14.470;2024-02-21T01:57:36;2.67;99.99
67868;SHT31;54672;46.096;14.470;2024-02-21T02:00:02;2.68;99.99
67868;SHT31;54672;46.096;14.470;2024-02-21T02:02:28;2.64;99.99
67868;SHT31;54672;46.096;14.470;2024-02-21T02:04:54;2.65;99.99
67868;SHT31;54672;46.096;14.470;2024-02-21T02:07:20;2.70;99.99
67868;SHT31;54672;46.096;14.470;2024-02-21T02:09:45;2.68;99.99
67868;SHT31;54672;46.096;14.470;2024-02-21T02:12:11;2.71;99.99
67868;SHT31;54672;46.096;14.470;2024-02-21T02:14:36;2.79;99.99
67868;SHT31;54672;46.096;14.470;2024-02-21T02:17:01;2.67;99.99
67868;SHT31;54672;46.096;14.470;2024-02-21T02:19:27;2.68;99.99
67868;SHT31;54672;46.096;14.470;2024-02-21T02:22:02;2.91;99.99
67868;SHT31;54672;46.096;14.470;2024-02-21T02:24:30;3.01;99.99
67868;SHT31;54672;46.096;14.470;2024-02-21T02:26:55;3.05;99.99
67868;SHT31;54672;46.096;14.470;2024-02-21T02:29:21;2.97;99.99
67868;SHT31;54672;46.096;14.470;2024-02-21T02:31:46;2.88;99.99
67868;SHT31;54672;46.096;14.470;2024-02-21T02:34:12;2.85;99.99
67868;SHT31;54672;46.096;14.470;2024-02-21T02:36:37;2.81;99.99
67868;SHT31;54672;46.096;14.470;2024-02-21T02:39:03;2.70;99.99
67868;SHT31;54672;46.096;14.470;2024-02-21T02:41:28;2.52;99.99
67868;SHT31;54672;46.096;14.470;2024-02-21T02:43:54;2.44;99.99
67868;SHT31;54672;46.096;14.470;2024-02-21T02:46:19;2.40;99.99
67868;SHT31;54672;46.096;14.470;2024-02-21T02:48:44;2.39;99.99
67868;SHT31;54672;46.096;14.470;2024-02-21T02:51:10;2.43;99.99
67868;SHT31;54672;46.096;14.470;2024-02-21T02:53:36;2.44;99.99
67868;SHT31;54672;46.096;14.470;2024-02-21T02:56:01;2.64;99.99
67868;SHT31;54672;46.096;14.470;2024-02-21T02:58:27;2.68;99.99
67868;SHT31;54672;46.096;14.470;2024-02-21T03:00:53;2.64;99.99
67868;SHT31;54672;46.096;14.470;2024-02-21T03:03:18;2.56;99.99
67868;SHT31;54672;46.096;14.470;2024-02-21T03:05:44;2.49;99.99
67868;SHT31;54672;46.096;14.470;2024-02-21T03:08:09;2.39;99.99
67868;SHT31;54672;46.096;14.470;2024-02-21T03:10:35;2.43;99.99
67868;SHT31;54672;46.096;14.470;2024-02-21T03:13:00;2.32;99.99
67868;SHT31;54672;46.096;14.470;2024-02-21T03:15:26;2.28;99.99
67868;SHT31;54672;46.096;14.470;2024-02-21T03:17:51;2.21;99.99
67868;SHT31;54672;46.096;14.470;2024-02-21T03:20:16;2.19;99.99
67868;SHT31;54672;46.096;14.470;2024-02-21T03:22:42;2.18;99.99
67868;SHT31;54672;46.096;14.470;2024-02-21T03:25:11;2.09;99.99
67868;SHT31;54672;46.096;14.470;2024-02-21T03:27:38;2.06;99.99
67868;SHT31;54672;46.096;14.470;2024-02-21T03:30:04;2.01;99.99
67868;SHT31;54672;46.096;14.470;2024-02-21T03:32:29;1.95;99.99
67868;SHT31;54672;46.096;14.470;2024-02-21T03:34:55;1.94;99.99
67868;SHT31;54672;46.096;14.470;2024-02-21T03:37:20;1.97;99.99
67868;SHT31;54672;46.096;14.470;2024-02-21T03:39:46;1.97;99.99
67868;SHT31;54672;46.096;14.470;2024-02-21T03:42:11;1.82;99.99
67868;SHT31;54672;46.096;14.470;2024-02-21T03:44:37;1.65;99.99
67868;SHT31;54672;46.096;14.470;2024-02-21T03:47:02;1.55;99.99
67868;SHT31;54672;46.096;14.470;2024-02-21T03:49:28;1.55;99.99
67868;SHT31;54672;46.096;14.470;2024-02-21T03:51:54;1.53;99.99
67868;SHT31;54672;46.096;14.470;2024-02-21T03:54:20;1.55;99.99
67868;SHT31;54672;46.096;14.470;2024-02-21T03:56:45;1.57;99.99
67868;SHT31;54672;46.096;14.470;2024-02-21T03:59:13;1.55;99.99
67868;SHT31;54672;46.096;14.470;2024-02-21T04:01:38;1.43;99.99
67868;SHT31;54672;46.096;14.470;2024-02-21T04:04:04;1.39;99.99
67868;SHT31;54672;46.096;14.470;2024-02-21T04:06:29;1.37;99.99
67868;SHT31;54672;46.096;14.470;2024-02-21T04:08:54;1.40;99.99
67868;SHT31;54672;46.096;14.470;2024-02-21T04:11:20;1.48;99.99
67868;SHT31;54672;46.096;14.470;2024-02-21T04:13:46;1.44;99.99
67868;SHT31;54672;46.096;14.470;2024-02-21T04:16:14;1.43;99.99
67868;SHT31;54672;46.096;14.470;2024-02-21T04:18:40;1.41;99.99
67868;SHT31;54672;46.096;14.470;2024-02-21T04:21:05;1.26;99.99
67868;SHT31;54672;46.096;14.470;2024-02-21T04:23:31;1.24;99.99
67868;SHT31;54672;46.096;14.470;2024-02-21T04:25:56;1.20;99.99
67868;SHT31;54672;46.096;14.470;2024-02-21T04:28:22;1.16;99.99
67868;SHT31;54672;46.096;14.470;2024-02-21T04:30:47;1.13;99.99
67868;SHT31;54672;46.096;14.470;2024-02-21T04:33:13;1.09;99.99
67868;SHT31;54672;46.096;14.470;2024-02-21T04:35:38;1.13;99.99
67868;SHT31;54672;46.096;14.470;2024-02-21T04:38:04;1.13;99.99
67868;SHT31;54672;46.096;14.470;2024-02-21T04:40:30;1.17;99.99
67868;SHT31;54672;46.096;14.470;2024-02-21T04:42:57;1.16;99.99
67868;SHT31;54672;46.096;14.470;2024-02-21T04:45:22;1.15;99.99
67868;SHT31;54672;46.096;14.470;2024-02-21T04:47:48;1.12;99.99
67868;SHT31;54672;46.096;14.470;2024-02-21T04:50:13;1.06;99.99
67868;SHT31;54672;46.096;14.470;2024-02-21T04:52:38;1.07;99.99
67868;SHT31;54672;46.096;14.470;2024-02-21T04:55:04;1.04;99.99
67868;SHT31;54672;46.096;14.470;2024-02-21T04:57:30;0.99;99.99
67868;SHT31;54672;46.096;14.470;2024-02-21T04:59:55;0.81;99.99
67868;SHT31;54672;46.096;14.470;2024-02-21T05:02:20;0.85;99.99
67868;SHT31;54672;46.096;14.470;2024-02-21T05:04:49;0.89;99.99
67868;SHT31;54672;46.096;14.470;2024-02-21T05:07:15;0.97;99.99
67868;SHT31;54672;46.096;14.470;2024-02-21T05:09:42;1.00;99.99
67868;SHT31;54672;46.096;14.470;2024-02-21T05:12:08;0.96;99.99
67868;SHT31;54672;46.096;14.470;2024-02-21T05:14:33;1.02;99.99
67868;SHT31;54672;46.096;14.470;2024-02-21T05:16:59;0.96;99.99
67868;SHT31;54672;46.096;14.470;2024-02-21T05:19:24;0.96;99.99
67868;SHT31;54672;46.096;14.470;2024-02-21T05:21:50;1.00;99.99
67868;SHT31;54672;46.096;14.470;2024-02-21T05:24:15;0.95;99.99
67868;SHT31;54672;46.096;14.470;2024-02-21T05:26:40;0.91;99.99
67868;SHT31;54672;46.096;14.470;2024-02-21T05:29:06;1.00;99.99
67868;SHT31;54672;46.096;14.470;2024-02-21T05:34:16;1.02;99.99
67868;SHT31;54672;46.096;14.470;2024-02-21T05:36:41;1.06;99.99
67868;SHT31;54672;46.096;14.470;2024-02-21T05:39:06;1.17;99.99
67868;SHT31;54672;46.096;14.470;2024-02-21T05:41:32;1.29;99.99
67868;SHT31;54672;46.096;14.470;2024-02-21T05:43:57;1.36;99.99
67868;SHT31;54672;46.096;14.470;2024-02-21T05:46:23;1.41;99.99
67868;SHT31;54672;46.096;14.470;2024-02-21T05:48:48;1.46;99.99
67868;SHT31;54672;46.096;14.470;2024-02-21T05:51:13;1.50;99.99
67868;SHT31;54672;46.096;14.470;2024-02-21T05:53:40;1.55;99.99
67868;SHT31;54672;46.096;14.470;2024-02-21T05:56:10;1.62;99.99
67868;SHT31;54672;46.096;14.470;2024-02-21T05:58:36;1.70;99.99
67868;SHT31;54672;46.096;14.470;2024-02-21T06:01:02;1.74;99.99
67868;SHT31;54672;46.096;14.470;2024-02-21T06:03:29;1.82;99.99
67868;SHT31;54672;46.096;14.470;2024-02-21T06:05:54;1.86;99.99
67868;SHT31;54672;46.096;14.470;2024-02-21T06:08:20;1.94;99.99
67868;SHT31;54672;46.096;14.470;2024-02-21T06:10:45;2.29;99.99
67868;SHT31;54672;46.096;14.470;2024-02-21T06:13:11;2.79;99.99
67868;SHT31;54672;46.096;14.470;2024-02-21T06:15:36;2.40;99.42
67868;SHT31;54672;46.096;14.470;2024-02-21T06:18:02;2.56;99.99
67868;SHT31;54672;46.096;14.470;2024-02-21T06:20:27;2.60;99.99
67868;SHT31;54672;46.096;14.470;2024-02-21T06:22:53;2.53;99.99
67868;SHT31;54672;46.096;14.470;2024-02-21T06:25:19;2.39;99.84
67868;SHT31;54672;46.096;14.470;2024-02-21T06:27:44;2.15;99.99
67868;SHT31;54672;46.096;14.470;2024-02-21T06:30:10;1.99;99.99
67868;SHT31;54672;46.096;14.470;2024-02-21T06:32:35;2.06;99.99
67868;SHT31;54672;46.096;14.470;2024-02-21T06:35:01;2.16;99.99
67868;SHT31;54672;46.096;14.470;2024-02-21T06:37:29;2.09;99.99
67868;SHT31;54672;46.096;14.470;2024-02-21T06:39:55;2.15;99.99
67868;SHT31;54672;46.096;14.470;2024-02-21T06:42:20;2.06;99.99
67868;SHT31;54672;46.096;14.470;2024-02-21T06:44:46;2.05;99.99
67868;SHT31;54672;46.096;14.470;2024-02-21T06:47:12;2.02;99.99
67868;SHT31;54672;46.096;14.470;2024-02-21T06:49:38;1.89;99.99
67868;SHT31;54672;46.096;14.470;2024-02-21T06:52:04;1.88;99.99
67868;SHT31;54672;46.096;14.470;2024-02-21T06:54:30;1.98;99.99
67868;SHT31;54672;46.096;14.470;2024-02-21T06:56:56;1.94;99.99
67868;SHT31;54672;46.096;14.470;2024-02-21T06:59:21;2.08;99.99
67868;SHT31;54672;46.096;14.470;2024-02-21T07:01:48;2.15;99.99
67868;SHT31;54672;46.096;14.470;2024-02-21T07:04:14;2.05;99.99
67868;SHT31;54672;46.096;14.470;2024-02-21T07:06:40;2.06;99.99
67868;SHT31;54672;46.096;14.470;2024-02-21T07:09:05;2.03;99.99
67868;SHT31;54672;46.096;14.470;2024-02-21T07:11:31;1.98;99.99
67868;SHT31;54672;46.096;14.470;2024-02-21T07:13:56;2.02;99.99
67868;SHT31;54672;46.096;14.470;2024-02-21T07:26:27;6.19;91.81
67868;SHT31;54672;46.096;14.470;2024-02-21T07:28:52;7.05;85.54
67868;SHT31;54672;46.096;14.470;2024-02-21T07:31:17;8.45;80.57
67868;SHT31;54672;46.096;14.470;2024-02-21T07:33:43;8.72;77.34
67868;SHT31;54672;46.096;14.470;2024-02-21T07:36:10;9.17;76.32
67868;SHT31;54672;46.096;14.470;2024-02-21T07:38:36;10.02;74.11
67868;SHT31;54672;46.096;14.470;2024-02-21T07:41:02;10.54;71.22
67868;SHT31;54672;46.096;14.470;2024-02-21T07:43:29;10.38;71.86
67868;SHT31;54672;46.096;14.470;2024-02-21T07:45:55;10.33;71.89
67868;SHT31;54672;46.096;14.470;2024-02-21T07:48:21;11.33;69.48
67868;SHT31;54672;46.096;14.470;2024-02-21T07:50:50;11.22;69.53
67868;SHT31;54672;46.096;14.470;2024-02-21T07:53:16;10.53;71.31
67868;SHT31;54672;46.096;14.470;2024-02-21T07:55:41;8.93;73.80
67868;SHT31;54672;46.096;14.470;2024-02-21T07:58:07;6.87;81.82
67868;SHT31;54672;46.096;14.470;2024-02-21T08:00:32;6.60;84.43
67868;SHT31;54672;46.096;14.470;2024-02-21T08:03:24;7.45;81.56
67868;SHT31;54672;46.096;14.470;2024-02-21T08:05:50;7.16;81.48
67868;SHT31;54672;46.096;14.470;2024-02-21T08:11:35;6.38;84.77
67868;SHT31;54672;46.096;14.470;2024-02-21T08:14:01;6.51;85.29
67868;SHT31;54672;46.096;14.470;2024-02-21T08:16:28;7.09;83.35
67868;SHT31;54672;46.096;14.470;2024-02-21T08:18:53;7.19;83.29
67868;SHT31;54672;46.096;14.470;2024-02-21T08:21:19;7.15;82.97
67868;SHT31;54672;46.096;14.470;2024-02-21T08:23:44;7.02;83.80
67868;SHT31;54672;46.096;14.470;2024-02-21T08:26:10;6.98;83.10
67868;SHT31;54672;46.096;14.470;2024-02-21T08:28:36;7.08;83.01
67868;SHT31;54672;46.096;14.470;2024-02-21T08:31:02;7.93;82.31
67868;SHT31;54672;46.096;14.470;2024-02-21T08:33:27;9.41;77.76
67868;SHT31;54672;46.096;14.470;2024-02-21T08:35:55;10.72;71.24
67868;SHT31;54672;46.096;14.470;2024-02-21T08:38:20;11.54;70.08
67868;SHT31;54672;46.096;14.470;2024-02-21T08:40:45;11.52;66.80
67868;SHT31;54672;46.096;14.470;2024-02-21T08:43:11;11.54;66.57
67868;SHT31;54672;46.096;14.470;2024-02-21T08:45:37;9.72;72.16
67868;SHT31;54672;46.096;14.470;2024-02-21T08:48:03;8.86;74.61
67868;SHT31;54672;46.096;14.470;2024-02-21T08:50:28;8.15;77.42
67868;SHT31;54672;46.096;14.470;2024-02-21T08:52:54;7.80;78.20
67868;SHT31;54672;46.096;14.470;2024-02-21T08:55:20;7.20;80.47
67868;SHT31;54672;46.096;14.470;2024-02-21T08:57:45;7.27;80.46
67868;SHT31;54672;46.096;14.470;2024-02-21T09:00:11;7.25;80.72
67868;SHT31;54672;46.096;14.470;2024-02-21T09:02:41;7.15;80.69
67868;SHT31;54672;46.096;14.470;2024-02-21T09:05:10;7.18;81.36
67868;SHT31;54672;46.096;14.470;2024-02-21T09:07:35;7.32;81.15
67868;SHT31;54672;46.096;14.470;2024-02-21T09:10:01;7.30;79.42
67868;SHT31;54672;46.096;14.470;2024-02-21T09:12:27;6.74;79.91
67868;SHT31;54672;46.096;14.470;2024-02-21T09:14:53;6.99;80.34
67868;SHT31;54672;46.096;14.470;2024-02-21T09:17:18;7.26;78.51
67868;SHT31;54672;46.096;14.470;2024-02-21T09:19:46;7.53;77.43
67868;SHT31;54672;46.096;14.470;2024-02-21T09:22:12;7.69;78.42
67868;SHT31;54672;46.096;14.470;2024-02-21T09:24:38;7.84;78.69
67868;SHT31;54672;46.096;14.470;2024-02-21T09:27:03;8.02;77.99
67868;SHT31;54672;46.096;14.470;2024-02-21T09:29:29;7.91;77.21
67868;SHT31;54672;46.096;14.470;2024-02-21T09:31:54;8.08;77.45
67868;SHT31;54672;46.096;14.470;2024-02-21T09:34:20;8.22;76.93
67868;SHT31;54672;46.096;14.470;2024-02-21T09:36:45;8.38;76.03
67868;SHT31;54672;46.096;14.470;2024-02-21T09:39:10;8.50;76.37
67868;SHT31;54672;46.096;14.470;2024-02-21T09:41:44;8.50;74.78
67868;SHT31;54672;46.096;14.470;2024-02-21T09:44:12;8.66;74.97
67868;SHT31;54672;46.096;14.470;2024-02-21T09:46:47;8.79;74.20
67868;SHT31;54672;46.096;14.470;2024-02-21T09:49:30;9.00;73.51
67868;SHT31;54672;46.096;14.470;2024-02-21T09:52:00;9.11;72.68
67868;SHT31;54672;46.096;14.470;2024-02-21T09:54:28;9.34;72.54
67868;SHT31;54672;46.096;14.470;2024-02-21T09:56:55;9.48;71.91
67868;SHT31;54672;46.096;14.470;2024-02-21T09:59:22;9.24;71.68
67868;SHT31;54672;46.096;14.470;2024-02-21T10:01:47;9.25;70.97
67868;SHT31;54672;46.096;14.470;2024-02-21T10:04:13;9.24;70.01
67868;SHT31;54672;46.096;14.470;2024-02-21T10:06:38;9.38;70.23
67868;SHT31;54672;46.096;14.470;2024-02-21T10:09:06;9.48;69.21
67868;SHT31;54672;46.096;14.470;2024-02-21T10:11:31;9.76;69.15
67868;SHT31;54672;46.096;14.470;2024-02-21T10:14:06;9.72;69.16
67868;SHT31;54672;46.096;14.470;2024-02-21T10:16:32;9.71;68.93
67868;SHT31;54672;46.096;14.470;2024-02-21T10:18:59;9.79;70.08
67868;SHT31;54672;46.096;14.470;2024-02-21T10:21:24;9.95;69.08
67868;SHT31;54672;46.096;14.470;2024-02-21T10:23:50;10.09;69.49
67868;SHT31;54672;46.096;14.470;2024-02-21T10:26:17;10.18;69.07
67868;SHT31;54672;46.096;14.470;2024-02-21T10:28:43;10.47;68.71
67868;SHT31;54672;46.096;14.470;2024-02-21T10:31:11;10.43;68.21
67868;SHT31;54672;46.096;14.470;2024-02-21T10:33:56;10.48;67.49
67868;SHT31;54672;46.096;14.470;2024-02-21T10:36:23;10.58;69.19
67868;SHT31;54672;46.096;14.470;2024-02-21T10:38:49;10.58;68.91
67868;SHT31;54672;46.096;14.470;2024-02-21T10:41:15;10.64;68.23
67868;SHT31;54672;46.096;14.470;2024-02-21T10:43:41;10.51;68.98
67868;SHT31;54672;46.096;14.470;2024-02-21T10:46:07;10.74;69.10
67868;SHT31;54672;46.096;14.470;2024-02-21T10:48:44;10.79;68.40
67868;SHT31;54672;46.096;14.470;2024-02-21T10:51:20;10.69;68.93
67868;SHT31;54672;46.096;14.470;2024-02-21T10:58:50;10.99;68.81
67868;SHT31;54672;46.096;14.470;2024-02-21T11:01:17;11.06;69.50
67868;SHT31;54672;46.096;14.470;2024-02-21T11:03:45;11.25;70.05
67868;SHT31;54672;46.096;14.470;2024-02-21T11:06:12;11.32;68.02
67868;SHT31;54672;46.096;14.470;2024-02-21T11:08:37;11.49;67.17
67868;SHT31;54672;46.096;14.470;2024-02-21T11:11:05;11.43;68.03
67868;SHT31;54672;46.096;14.470;2024-02-21T11:13:37;11.35;68.62
67868;SHT31;54672;46.096;14.470;2024-02-21T11:16:07;11.35;68.10
67868;SHT31;54672;46.096;14.470;2024-02-21T11:18:34;11.20;68.38
67868;SHT31;54672;46.096;14.470;2024-02-21T11:20:59;11.22;67.95
67868;SHT31;54672;46.096;14.470;2024-02-21T11:23:28;11.30;68.87
67868;SHT31;54672;46.096;14.470;2024-02-21T11:26:17;11.50;68.96
67868;SHT31;54672;46.096;14.470;2024-02-21T11:28:44;11.50;68.73
67868;SHT31;54672;46.096;14.470;2024-02-21T11:31:13;11.47;68.51
67868;SHT31;54672;46.096;14.470;2024-02-21T11:33:42;11.59;68.74
67868;SHT31;54672;46.096;14.470;2024-02-21T11:36:23;11.73;68.46
67868;SHT31;54672;46.096;14.470;2024-02-21T11:38:50;11.80;67.81
67868;SHT31;54672;46.096;14.470;2024-02-21T11:41:16;11.84;67.42
67868;SHT31;54672;46.096;14.470;2024-02-21T11:43:41;11.78;67.75
67868;SHT31;54672;46.096;14.470;2024-02-21T11:46:07;11.88;67.58
67868;SHT31;54672;46.096;14.470;2024-02-21T11:48:32;12.13;67.12
67868;SHT31;54672;46.096;14.470;2024-02-21T11:50:58;12.07;66.90
67868;SHT31;54672;46.096;14.470;2024-02-21T11:53:25;12.10;67.09
67868;SHT31;54672;46.096;14.470;2024-02-21T11:55:56;12.29;66.77
67868;SHT31;54672;46.096;14.470;2024-02-21T11:58:22;12.36;66.45
67868;SHT31;54672;46.096;14.470;2024-02-21T12:00:48;12.24;65.74
67868;SHT31;54672;46.096;14.470;2024-02-21T12:03:14;12.05;66.31
67868;SHT31;54672;46.096;14.470;2024-02-21T12:05:41;12.01;66.70
67868;SHT31;54672;46.096;14.470;2024-02-21T12:08:06;12.08;66.92
67868;SHT31;54672;46.096;14.470;2024-02-21T12:10:32;12.08;66.37
67868;SHT31;54672;46.096;14.470;2024-02-21T12:13:08;12.02;66.34
67868;SHT31;54672;46.096;14.470;2024-02-21T12:15:34;12.04;66.95
67868;SHT31;54672;46.096;14.470;2024-02-21T12:18:00;12.31;67.01
67868;SHT31;54672;46.096;14.470;2024-02-21T12:20:26;12.49;66.31
67868;SHT31;54672;46.096;14.470;2024-02-21T12:22:51;12.59;65.67
67868;SHT31;54672;46.096;14.470;2024-02-21T12:25:22;12.69;65.46
67868;SHT31;54672;46.096;14.470;2024-02-21T12:27:48;12.63;66.12
67868;SHT31;54672;46.096;14.470;2024-02-21T12:30:15;12.57;66.24
67868;SHT31;54672;46.096;14.470;2024-02-21T12:32:40;12.53;66.10
67868;SHT31;54672;46.096;14.470;2024-02-21T12:35:07;12.49;66.67
67868;SHT31;54672;46.096;14.470;2024-02-21T12:37:32;12.52;66.41
67868;SHT31;54672;46.096;14.470;2024-02-21T12:39:58;12.14;67.49
67868;SHT31;54672;46.096;14.470;2024-02-21T12:42:24;12.28;67.30
67868;SHT31;54672;46.096;14.470;2024-02-21T12:44:51;12.18;67.21
67868;SHT31;54672;46.096;14.470;2024-02-21T12:47:18;12.21;67.11
67868;SHT31;54672;46.096;14.470;2024-02-21T12:49:45;12.57;66.80
67868;SHT31;54672;46.096;14.470;2024-02-21T12:52:11;12.93;65.81
67868;SHT31;54672;46.096;14.470;2024-02-21T12:54:36;13.15;65.09
67868;SHT31;54672;46.096;14.470;2024-02-21T12:57:01;13.33;65.16
67868;SHT31;54672;46.096;14.470;2024-02-21T12:59:29;13.48;64.55
67868;SHT31;54672;46.096;14.470;2024-02-21T13:01:54;13.55;64.21
67868;SHT31;54672;46.096;14.470;2024-02-21T13:04:19;13.61;64.27
67868;SHT31;54672;46.096;14.470;2024-02-21T13:06:47;13.65;63.89
67868;SHT31;54672;46.096;14.470;2024-02-21T13:09:12;13.78;63.63
67868;SHT31;54672;46.096;14.470;2024-02-21T13:11:39;13.93;63.04
67868;SHT31;54672;46.096;14.470;2024-02-21T13:14:05;13.62;63.27
67868;SHT31;54672;46.096;14.470;2024-02-21T13:16:31;13.64;63.88
67868;SHT31;54672;46.096;14.470;2024-02-21T13:18:57;13.99;63.55
67868;SHT31;54672;46.096;14.470;2024-02-21T13:21:22;14.09;63.01
67868;SHT31;54672;46.096;14.470;2024-02-21T13:23:48;14.12;62.85
67868;SHT31;54672;46.096;14.470;2024-02-21T13:26:13;14.13;62.60
67868;SHT31;54672;46.096;14.470;2024-02-21T13:28:39;14.03;63.12
67868;SHT31;54672;46.096;14.470;2024-02-21T13:31:05;13.78;63.48
67868;SHT31;54672;46.096;14.470;2024-02-21T13:33:30;13.47;63.86
67868;SHT31;54672;46.096;14.470;2024-02-21T13:35:55;13.53;63.79
67868;SHT31;54672;46.096;14.470;2024-02-21T13:38:21;13.54;64.07
67868;SHT31;54672;46.096;14.470;2024-02-21T13:40:46;13.48;63.94
67868;SHT31;54672;46.096;14.470;2024-02-21T13:43:12;13.57;63.85
67868;SHT31;54672;46.096;14.470;2024-02-21T13:45:38;13.69;63.66
67868;SHT31;54672;46.096;14.470;2024-02-21T13:48:04;13.50;64.03
67868;SHT31;54672;46.096;14.470;2024-02-21T13:50:31;13.68;64.54
67868;SHT31;54672;46.096;14.470;2024-02-21T13:52:57;13.83;63.52
67868;SHT31;54672;46.096;14.470;2024-02-21T13:55:23;13.72;64.52
67868;SHT31;54672;46.096;14.470;2024-02-21T13:57:51;13.92;63.84
67868;SHT31;54672;46.096;14.470;2024-02-21T14:00:17;14.08;63.75
67868;SHT31;54672;46.096;14.470;2024-02-21T14:02:43;14.06;63.82
67868;SHT31;54672;46.096;14.470;2024-02-21T14:05:09;14.22;63.71
67868;SHT31;54672;46.096;14.470;2024-02-21T14:07:35;14.32;62.55
67868;SHT31;54672;46.096;14.470;2024-02-21T14:10:00;14.13;62.50
67868;SHT31;54672;46.096;14.470;2024-02-21T14:12:26;14.12;62.70
67868;SHT31;54672;46.096;14.470;2024-02-21T14:14:51;14.15;62.91
67868;SHT31;54672;46.096;14.470;2024-02-21T14:17:18;14.19;62.37
67868;SHT31;54672;46.096;14.470;2024-02-21T14:19:43;14.29;61.85
67868;SHT31;54672;46.096;14.470;2024-02-21T14:22:09;14.24;61.53
67868;SHT31;54672;46.096;14.470;2024-02-21T14:24:36;14.01;64.18
67868;SHT31;54672;46.096;14.470;2024-02-21T14:27:02;13.90;64.14
67868;SHT31;54672;46.096;14.470;2024-02-21T14:29:28;13.98;64.04
67868;SHT31;54672;46.096;14.470;2024-02-21T14:31:54;14.05;62.55
67868;SHT31;54672;46.096;14.470;2024-02-21T14:34:19;14.08;63.19
67868;SHT31;54672;46.096;14.470;2024-02-21T14:36:45;14.05;61.91
67868;SHT31;54672;46.096;14.470;2024-02-21T14:39:10;14.16;62.28
67868;SHT31;54672;46.096;14.470;2024-02-21T14:41:36;14.15;61.93
67868;SHT31;54672;46.096;14.470;2024-02-21T14:44:02;14.01;61.37
67868;SHT31;54672;46.096;14.470;2024-02-21T14:46:28;14.01;60.73
67868;SHT31;54672;46.096;14.470;2024-02-21T14:48:55;14.02;61.62
67868;SHT31;54672;46.096;14.470;2024-02-21T14:51:20;14.10;61.64
67868;SHT31;54672;46.096;14.470;2024-02-21T14:53:45;14.02;62.39
67868;SHT31;54672;46.096;14.470;2024-02-21T14:56:15;14.17;62.12
67868;SHT31;54672;46.096;14.470;2024-02-21T14:58:42;14.20;61.98
67868;SHT31;54672;46.096;14.470;2024-02-21T15:01:08;14.16;62.78
67868;SHT31;54672;46.096;14.470;2024-02-21T15:03:34;14.15;60.26
67868;SHT31;54672;46.096;14.470;2024-02-21T15:05:59;14.19;59.21
67868;SHT31;54672;46.096;14.470;2024-02-21T15:08:26;14.27;58.36
67868;SHT31;54672;46.096;14.470;2024-02-21T15:10:53;14.26;57.63
67868;SHT31;54672;46.096;14.470;2024-02-21T15:13:18;14.27;57.86
67868;SHT31;54672;46.096;14.470;2024-02-21T15:15:44;14.29;57.15
67868;SHT31;54672;46.096;14.470;2024-02-21T15:18:09;14.20;57.13
67868;SHT31;54672;46.096;14.470;2024-02-21T15:20:34;14.08;57.55
67868;SHT31;54672;46.096;14.470;2024-02-21T15:23:00;13.98;57.74
67868;SHT31;54672;46.096;14.470;2024-02-21T15:25:30;13.93;57.14
67868;SHT31;54672;46.096;14.470;2024-02-21T15:27:56;13.92;57.15
67868;SHT31;54672;46.096;14.470;2024-02-21T15:30:21;13.92;57.14
67868;SHT31;54672;46.096;14.470;2024-02-21T15:32:47;13.81;58.08
67868;SHT31;54672;46.096;14.470;2024-02-21T15:35:12;13.74;57.72
67868;SHT31;54672;46.096;14.470;2024-02-21T15:37:39;13.71;58.07
67868;SHT31;54672;46.096;14.470;2024-02-21T15:40:05;13.59;57.95